Montacute, United Kingdom
Current Conditions -  °F | °C
As of 9:50 AM on Friday 28 Nov 2014 (Local Time) from EGDY Reporting Station
Broken Clouds Broken Clouds  
Wind Chill: 52°   Ceiling: 1500
Heat Index: 52°   Visibility: 6mi
Dew Point: 48°   Wind: 15mph
Humidity: 88%   Direction: 70°ENE
Pressure: 29.53"   Gusts: NA
Location:  50.95°N, 2.72°W
Report Text: EGDY 280950Z 07013KT 9999 FEW012 BKN015 11/09 Q1000 WHT TEMPO 9999 SCT012 GRN
Loading
Personal Weather Stations






























Interactive Weather Map New forecast layout! Learn more

10-Day Weather Forecast

Advertisements
Track Severe Weather on mobile